Tropical Cyclones
[Index]
Main Index Home Page Stock Weather Photos Extreme Storms Discussion Storm News and Storm Chasing Reports Tropical Cyclones / Hurricanes / Typhoons Weather Data and Links Wild Fires / Bushfires Weather Observation Techniques Weather Picture Catalogue Tornado Pictures and Reports Stock Video Footage and DVDs for sale
Season 2013-2014 Tropical Cyclone ALESSIA Track Map
Season 2013-2014 Summaries: [BoM-AU] [JTWC-AU] [JTWC-SIO] [JTWC-SPAC] [JTWC-SH]
<<- Previous TC | JTWC 2013-2014 Season | Next TC ->>

click for intensity scale information  Lat/long Grid: Show Hide

 Date Labels: Show Hide

Joint Typhoon Warning Centre Cyclone Data

Name: ALESSIA

20 Nov 2013 18:00 UTC to 30 Nov 2013 18:00 UTC

    date/time    lat    long     hPa   cat  kts
2013-11-20 18   12.0   114.6    1004         25          
2013-11-21 00   12.6   115.4    1004         25          
2013-11-21 06   13.3   116.3    1000         30          
2013-11-21 12   13.6   117.3     996         35          
2013-11-21 18   14.0   118.6     996         35          
2013-11-22 00   14.2   119.3     996         35          
2013-11-22 06   14.4   120.3     993    1    40          
2013-11-22 12   14.5   121.6     989    1    45          
2013-11-22 18   14.6   122.9     989    1    45          
2013-11-23 00   14.6   123.8     989    1    45          
2013-11-23 06   14.6   124.9     993    1    40          
2013-11-23 12   14.3   125.8     993    1    40          
2013-11-23 18   14.0   126.7     996         35          
2013-11-24 00   13.9   128.0    1000         30          
2013-11-24 06   13.8   129.0    1004         25          
2013-11-24 12   13.8   130.7    1004         25          
2013-11-24 18   13.7   132.2    1004         25          
2013-11-25 00   13.4   133.5    1004         25          
2013-11-25 06   13.1   134.6    1004         25          
2013-11-25 12   13.0   135.3    1004         25          
2013-11-25 18   13.4   136.0    1004         25          
2013-11-26 00   14.2   136.5    1004         25          
2013-11-26 06   14.6   136.7    1007         20          
2013-11-26 12   15.0   136.9    1007         20          
2013-11-26 18   15.4   137.1    1004         25          
2013-11-27 00   15.7   137.3    1000         30          
2013-11-27 06   16.0   137.4     996         35          
2013-11-27 12   16.4   137.3    1000         30          
2013-11-27 18   16.7   136.7    1004         25          
2013-11-28 00   16.6   136.0    1003         25          
2013-11-28 06   16.4   135.9    1003         20          
2013-11-28 12   16.2   136.3    1003         20          
2013-11-28 18   16.0   136.7    1004         20          
2013-11-29 00   15.9   137.2    1005         20          
2013-11-29 06   15.8   137.9    1005         20          
2013-11-29 12   15.9   138.8    1005         20          
2013-11-29 18   16.1   139.5    1010         15          
2013-11-30 00   16.5   139.5    1010         15          
2013-11-30 06   16.4   138.9    1010         15          
2013-11-30 12   15.5   137.6    1008         15          
2013-11-30 18   14.7   135.8    1010         15          
Winds are 1-min average.

Tropical cyclone tracks developed by Michael Bath using data from the Joint Typhoon Warning Centre Best Tracks and Google Maps.


[Australian Severe Weather index] [Copyright Notice] [Email Contacts] [Search This Site] [Privacy Policy]
Document: tropical_cyclone_alessia.htm Updated: 28 June 2017